createdAt,value
2023-01-30T00:01:50.021Z,63.70
2023-01-30T00:04:17.941Z,63.30
2023-01-30T00:06:45.838Z,63.20
2023-01-30T00:09:15.745Z,63.20
2023-01-30T00:11:46.768Z,63.30
2023-01-30T00:14:15.506Z,63.60
2023-01-30T00:16:43.606Z,64.30
2023-01-30T00:19:11.612Z,63.50
2023-01-30T00:21:39.516Z,63.50
2023-01-30T00:24:08.108Z,63.50
2023-01-30T00:26:37.462Z,63.70
2023-01-30T00:29:05.331Z,63.80
2023-01-30T00:31:33.262Z,63.90
2023-01-30T00:34:01.179Z,64.10
2023-01-30T00:36:29.150Z,63.90
2023-01-30T00:38:58.472Z,63.90
2023-01-30T00:41:47.159Z,63.90
2023-01-30T00:44:33.769Z,64.00
2023-01-30T00:47:08.939Z,63.90
2023-01-30T00:49:37.129Z,64.00
2023-01-30T00:52:05.316Z,64.20
2023-01-30T00:54:33.460Z,64.30
2023-01-30T00:57:01.412Z,63.90
2023-01-30T00:59:30.678Z,63.70
2023-01-30T01:01:58.622Z,63.30
2023-01-30T01:04:26.828Z,63.20
2023-01-30T01:06:54.722Z,63.40
2023-01-30T01:09:22.852Z,63.50
2023-01-30T01:11:50.747Z,63.70
2023-01-30T01:14:18.692Z,63.60
2023-01-30T01:16:47.939Z,63.60
2023-01-30T01:19:15.849Z,63.70
2023-01-30T01:21:43.773Z,63.70
2023-01-30T01:24:13.408Z,63.80
2023-01-30T01:26:42.620Z,63.90
2023-01-30T01:29:13.161Z,63.90
2023-01-30T01:31:41.237Z,64.10
2023-01-30T01:34:10.594Z,63.80
2023-01-30T01:36:55.039Z,63.90
2023-01-30T01:39:23.551Z,63.80
2023-01-30T01:41:50.757Z,63.90
2023-01-30T01:44:18.675Z,64.00
2023-01-30T01:46:48.247Z,64.00
2023-01-30T01:49:21.414Z,64.30
2023-01-30T01:51:52.682Z,64.20
2023-01-30T01:54:22.556Z,63.80
2023-01-30T01:56:50.485Z,63.40
2023-01-30T01:59:22.941Z,63.10
2023-01-30T02:01:50.966Z,63.10
2023-01-30T02:04:40.205Z,63.20
2023-01-30T02:07:08.110Z,63.40
2023-01-30T02:09:36.037Z,63.60
2023-01-30T02:12:04.276Z,63.50
2023-01-30T02:14:33.602Z,63.40
2023-01-30T02:17:01.519Z,63.50
2023-01-30T02:19:35.809Z,63.70
2023-01-30T02:22:20.963Z,63.80
2023-01-30T02:25:09.592Z,63.80
2023-01-30T02:28:12.263Z,64.00
2023-01-30T02:31:03.347Z,63.80
2023-01-30T02:33:36.164Z,63.90
2023-01-30T02:36:07.382Z,63.80
2023-01-30T02:38:39.619Z,63.90
2023-01-30T02:41:18.298Z,64.00
2023-01-30T02:43:50.865Z,64.00
2023-01-30T02:46:21.787Z,64.10
2023-01-30T02:48:52.202Z,64.00
2023-01-30T02:51:21.897Z,64.00
2023-01-30T02:53:50.398Z,64.00
2023-01-30T02:56:19.423Z,64.00
2023-01-30T02:58:50.764Z,64.10
2023-01-30T03:01:38.902Z,64.00
2023-01-30T03:04:31.931Z,64.30
2023-01-30T03:07:09.105Z,64.30
2023-01-30T03:09:41.991Z,63.90
2023-01-30T03:12:12.322Z,63.50
2023-01-30T03:14:43.950Z,63.20
2023-01-30T03:17:13.401Z,63.30
2023-01-30T03:19:41.851Z,63.30
2023-01-30T03:22:09.841Z,63.40
2023-01-30T03:24:37.744Z,63.60
2023-01-30T03:27:07.821Z,63.70
2023-01-30T03:29:35.888Z,63.80
2023-01-30T03:32:03.839Z,63.80
2023-01-30T03:34:33.320Z,63.90
2023-01-30T03:37:01.250Z,64.00
2023-01-30T03:39:29.272Z,64.20
2023-01-30T03:41:57.261Z,64.30
2023-01-30T03:44:25.693Z,64.10
2023-01-30T03:46:54.085Z,64.10
2023-01-30T03:49:22.132Z,64.10
2023-01-30T03:51:51.627Z,64.10
2023-01-30T03:54:20.381Z,64.10
2023-01-30T03:56:48.677Z,64.10
2023-01-30T03:59:16.677Z,64.20
2023-01-30T04:01:51.648Z,64.40
2023-01-30T04:04:20.055Z,64.20
2023-01-30T04:06:48.004Z,63.70
2023-01-30T04:09:17.790Z,63.40
2023-01-30T04:11:51.616Z,63.30
2023-01-30T04:14:20.461Z,63.50
2023-01-30T04:17:17.563Z,63.40
2023-01-30T04:20:03.988Z,63.80
2023-01-30T04:22:34.338Z,63.60
2023-01-30T04:25:03.608Z,63.70
2023-01-30T04:27:31.851Z,63.70
2023-01-30T04:30:12.314Z,63.80
2023-01-30T04:32:41.175Z,63.90
2023-01-30T04:35:11.626Z,63.90
2023-01-30T04:37:40.411Z,64.10
2023-01-30T04:40:12.691Z,64.30
2023-01-30T04:42:40.634Z,64.00
2023-01-30T04:45:34.275Z,63.50
2023-01-30T04:48:02.499Z,63.40
2023-01-30T04:50:31.476Z,63.40
2023-01-30T04:52:59.535Z,63.60
2023-01-30T04:55:28.847Z,63.70
2023-01-30T04:57:56.973Z,64.50
2023-01-30T05:00:26.896Z,63.70
2023-01-30T05:03:01.020Z,63.70
2023-01-30T05:05:28.937Z,63.80
2023-01-30T05:07:57.062Z,63.90
2023-01-30T05:10:25.130Z,63.90
2023-01-30T05:12:54.379Z,64.00
2023-01-30T05:15:22.540Z,64.10
2023-01-30T05:17:50.474Z,64.00
2023-01-30T05:20:18.766Z,64.00
2023-01-30T05:22:46.669Z,64.00
2023-01-30T05:25:14.676Z,64.00
2023-01-30T05:27:42.642Z,64.00
2023-01-30T05:30:12.772Z,64.00
2023-01-30T05:32:40.668Z,64.10
2023-01-30T05:35:09.257Z,64.30
2023-01-30T05:37:37.810Z,64.00
2023-01-30T05:40:07.104Z,63.70
2023-01-30T05:42:35.108Z,63.30
2023-01-30T05:45:03.015Z,63.10
2023-01-30T05:47:32.288Z,63.20
2023-01-30T05:50:00.250Z,63.30
2023-01-30T05:52:28.106Z,63.50
2023-01-30T05:54:56.019Z,63.60
2023-01-30T05:57:23.996Z,63.50
2023-01-30T05:59:51.928Z,63.50
2023-01-30T06:02:19.797Z,63.60
2023-01-30T06:04:49.074Z,63.70
2023-01-30T06:07:17.011Z,63.80
2023-01-30T06:09:44.862Z,63.80
2023-01-30T06:12:12.799Z,64.10
2023-01-30T06:14:40.665Z,63.90
2023-01-30T06:17:08.634Z,63.90
2023-01-30T06:19:36.615Z,63.80
2023-01-30T06:22:05.877Z,63.90
2023-01-30T06:24:33.790Z,64.00
2023-01-30T06:27:02.725Z,64.00
2023-01-30T06:29:30.579Z,64.30
2023-01-30T06:31:58.486Z,64.20
2023-01-30T06:34:26.450Z,63.90
2023-01-30T06:36:54.330Z,64.10
2023-01-30T06:39:23.580Z,63.40
2023-01-30T06:41:51.499Z,63.40
2023-01-30T06:44:19.369Z,63.50
2023-01-30T06:46:47.284Z,63.50
2023-01-30T06:49:15.153Z,63.90
2023-01-30T06:51:43.070Z,63.70
2023-01-30T06:54:10.975Z,63.70
2023-01-30T06:56:40.229Z,63.70
2023-01-30T06:59:08.250Z,63.80
2023-01-30T07:01:36.147Z,63.80
2023-01-30T07:04:04.117Z,63.90
2023-01-30T07:06:32.241Z,63.90
2023-01-30T07:09:00.161Z,64.20
2023-01-30T07:11:28.087Z,64.00
2023-01-30T07:13:57.349Z,63.60
2023-01-30T07:16:29.252Z,63.50
2023-01-30T07:18:58.514Z,63.30
2023-01-30T07:21:27.212Z,63.30
2023-01-30T07:23:55.143Z,63.40
2023-01-30T07:26:23.069Z,63.50
2023-01-30T07:28:50.995Z,63.70
2023-01-30T07:31:20.335Z,63.50
2023-01-30T07:33:48.464Z,63.50
2023-01-30T07:36:16.389Z,63.60
2023-01-30T07:38:44.283Z,63.60
2023-01-30T07:41:12.211Z,63.70
2023-01-30T07:43:40.089Z,63.60
2023-01-30T07:46:08.020Z,63.30
2023-01-30T07:48:37.249Z,63.30
2023-01-30T07:51:05.222Z,63.30
2023-01-30T07:53:33.130Z,63.30
2023-01-30T07:56:01.110Z,63.40
2023-01-30T07:58:30.650Z,63.50
2023-01-30T08:00:58.853Z,63.70
2023-01-30T08:03:26.814Z,63.60
2023-01-30T08:05:56.070Z,64.00
2023-01-30T08:08:23.952Z,63.70
2023-01-30T08:10:51.899Z,63.50
2023-01-30T08:13:19.802Z,63.00
2023-01-30T08:15:47.719Z,62.90
2023-01-30T08:18:15.658Z,62.80
2023-01-30T08:20:44.589Z,63.00
2023-01-30T08:23:13.814Z,63.20
2023-01-30T08:25:41.660Z,63.20
2023-01-30T08:28:09.523Z,63.30
2023-01-30T08:30:37.433Z,63.40
2023-01-30T08:33:05.493Z,63.50
2023-01-30T08:35:33.350Z,63.40
2023-01-30T08:38:03.320Z,63.50
2023-01-30T08:40:32.832Z,63.50
2023-01-30T08:43:00.781Z,63.70
2023-01-30T08:45:28.741Z,63.60
2023-01-30T08:47:59.302Z,63.70
2023-01-30T08:50:27.244Z,63.70
2023-01-30T08:52:55.139Z,63.70
2023-01-30T08:55:23.162Z,63.70
2023-01-30T08:57:53.351Z,63.70
2023-01-30T09:00:22.219Z,63.80
2023-01-30T09:02:50.168Z,64.00
2023-01-30T09:05:18.176Z,63.90
2023-01-30T09:07:46.076Z,63.50
2023-01-30T09:10:13.983Z,63.20
2023-01-30T09:12:41.879Z,63.20
2023-01-30T09:15:11.768Z,63.30
2023-01-30T09:17:39.702Z,63.40
2023-01-30T09:20:08.479Z,63.50
2023-01-30T09:22:36.406Z,63.40
2023-01-30T09:25:04.821Z,63.40
2023-01-30T09:27:32.727Z,63.50
2023-01-30T09:30:00.654Z,63.60
2023-01-30T09:32:30.172Z,63.50
2023-01-30T09:34:58.047Z,63.70
2023-01-30T09:37:26.029Z,63.70
2023-01-30T09:39:53.894Z,63.90
2023-01-30T09:43:00.256Z,63.80
2023-01-30T09:45:46.660Z,63.80
2023-01-30T09:48:22.069Z,63.80
2023-01-30T09:51:22.396Z,63.90
2023-01-30T09:54:09.615Z,64.00
2023-01-30T09:56:37.504Z,64.00
2023-01-30T09:59:06.732Z,64.20
2023-01-30T10:01:37.848Z,64.00
2023-01-30T10:04:14.672Z,63.50
2023-01-30T10:06:47.983Z,63.20
2023-01-30T10:09:17.943Z,63.20
2023-01-30T10:11:53.634Z,63.30
2023-01-30T10:14:37.305Z,63.40
2023-01-30T10:17:11.290Z,63.70
2023-01-30T10:19:58.743Z,63.50
2023-01-30T10:22:35.104Z,63.50
2023-01-30T10:25:08.550Z,63.70
2023-01-30T10:27:37.601Z,63.70
2023-01-30T10:30:06.651Z,63.80
2023-01-30T10:32:44.086Z,63.80
2023-01-30T10:35:18.007Z,64.00
2023-01-30T10:37:47.667Z,63.80
2023-01-30T10:40:19.381Z,63.90
2023-01-30T10:42:50.280Z,63.80
2023-01-30T10:45:20.375Z,64.00
2023-01-30T10:47:57.684Z,64.00
2023-01-30T10:50:29.601Z,64.00
2023-01-30T10:53:00.393Z,64.20
2023-01-30T10:55:37.576Z,64.30
2023-01-30T10:58:10.932Z,64.00
2023-01-30T11:00:40.505Z,63.60
2023-01-30T11:03:21.421Z,63.30
2023-01-30T11:05:52.002Z,63.30
2023-01-30T11:08:22.337Z,63.40
2023-01-30T11:10:50.490Z,63.40
2023-01-30T11:13:19.762Z,63.80
2023-01-30T11:15:48.947Z,63.60
2023-01-30T11:21:07.305Z,63.70
2023-01-30T11:23:35.987Z,63.80
2023-01-30T11:26:11.254Z,64.00
2023-01-30T11:28:42.316Z,64.00
2023-01-30T11:31:21.441Z,64.20
2023-01-30T11:34:00.750Z,64.00
2023-01-30T11:36:31.190Z,64.00
2023-01-30T11:39:00.421Z,64.00
2023-01-30T11:41:28.374Z,64.10
2023-01-30T11:44:01.133Z,64.00
2023-01-30T11:46:31.144Z,64.10
2023-01-30T11:49:44.714Z,64.20
2023-01-30T11:51:53.059Z,64.40
2023-01-30T11:54:21.929Z,64.30
2023-01-30T11:56:50.834Z,64.00
2023-01-30T11:59:24.581Z,63.50
2023-01-30T12:01:52.619Z,63.50
2023-01-30T12:04:21.090Z,63.50
2023-01-30T12:06:50.456Z,63.40
2023-01-30T12:09:32.381Z,63.70
2023-01-30T12:12:00.274Z,63.80
2023-01-30T12:14:36.848Z,63.70
2023-01-30T12:17:10.077Z,63.80
2023-01-30T12:19:44.367Z,63.80
2023-01-30T12:22:20.291Z,63.80
2023-01-30T12:24:52.482Z,64.00
2023-01-30T12:27:22.342Z,64.00
2023-01-30T12:29:55.802Z,64.20
2023-01-30T12:32:26.748Z,64.00
2023-01-30T12:34:54.654Z,64.00
2023-01-30T12:37:40.798Z,64.10
2023-01-30T12:40:15.914Z,64.10
2023-01-30T12:42:54.991Z,64.20
2023-01-30T12:45:23.820Z,64.20
2023-01-30T12:48:23.799Z,64.40
2023-01-30T12:51:01.652Z,64.40
2023-01-30T12:53:37.160Z,64.00
2023-01-30T12:56:21.418Z,63.50
2023-01-30T12:58:51.259Z,63.40
2023-01-30T13:01:25.087Z,63.50
2023-01-30T13:03:56.401Z,63.80
2023-01-30T13:06:33.540Z,63.90
2023-01-30T13:09:10.916Z,63.90
2023-01-30T13:11:43.180Z,63.90
2023-01-30T13:14:14.866Z,64.00
2023-01-30T13:16:50.171Z,64.00
2023-01-30T13:19:21.132Z,64.00
2023-01-30T13:21:52.347Z,64.10
2023-01-30T13:24:23.282Z,64.30
2023-01-30T13:26:51.220Z,64.20
2023-01-30T13:29:22.065Z,64.10
2023-01-30T13:31:51.786Z,64.90
2023-01-30T13:34:23.683Z,64.90
2023-01-30T13:36:53.725Z,64.20
2023-01-30T13:39:25.649Z,64.30
2023-01-30T13:41:56.123Z,64.30
2023-01-30T13:44:25.876Z,64.50
2023-01-30T13:46:54.050Z,64.40
2023-01-30T13:49:24.775Z,64.00
2023-01-30T13:51:53.266Z,63.60
2023-01-30T13:54:34.268Z,63.50
2023-01-30T13:57:06.551Z,63.40
2023-01-30T13:59:48.953Z,63.50
2023-01-30T14:02:20.888Z,63.70
2023-01-30T14:04:52.701Z,63.80
2023-01-30T14:07:24.207Z,63.80
2023-01-30T14:10:02.889Z,63.80
2023-01-30T14:12:35.163Z,64.00
2023-01-30T14:15:05.321Z,63.90
2023-01-30T14:17:33.245Z,64.00
2023-01-30T14:20:02.567Z,64.20
2023-01-30T14:22:36.968Z,64.40
2023-01-30T14:25:41.528Z,64.20
2023-01-30T14:28:48.372Z,64.20
2023-01-30T14:31:53.591Z,64.30
2023-01-30T14:34:44.008Z,64.30
2023-01-30T14:37:49.274Z,64.40
2023-01-30T14:40:43.905Z,64.40
2023-01-30T14:43:53.413Z,64.50
2023-01-30T14:46:42.502Z,64.00
2023-01-30T14:49:33.133Z,63.60
2023-01-30T14:52:03.635Z,63.50
2023-01-30T14:54:42.654Z,63.60
2023-01-30T14:57:32.465Z,63.70
2023-01-30T15:00:15.566Z,64.00
2023-01-30T15:02:44.797Z,64.00
2023-01-30T15:05:14.281Z,64.00
2023-01-30T15:07:45.278Z,64.00
2023-01-30T15:10:23.718Z,64.10
2023-01-30T15:13:22.134Z,64.20
2023-01-30T15:15:54.479Z,64.30
2023-01-30T15:18:30.358Z,64.40
2023-01-30T15:21:32.630Z,64.40
2023-01-30T15:24:19.812Z,64.30
2023-01-30T15:26:52.972Z,64.30
2023-01-30T15:29:31.146Z,64.30
2023-01-30T15:31:59.987Z,64.30
2023-01-30T15:34:29.039Z,64.40
2023-01-30T15:36:56.943Z,64.50
2023-01-30T15:39:26.833Z,64.50
2023-01-30T15:41:57.097Z,64.30
2023-01-30T15:44:51.476Z,63.80
2023-01-30T15:47:50.016Z,63.50
2023-01-30T15:50:18.645Z,63.50
2023-01-30T15:52:48.279Z,63.70
2023-01-30T15:55:19.145Z,63.80
2023-01-30T15:57:49.036Z,64.00
2023-01-30T16:00:23.880Z,63.90
2023-01-30T16:02:51.771Z,64.00
2023-01-30T16:05:20.535Z,64.00
2023-01-30T16:07:49.211Z,64.00
2023-01-30T16:10:19.833Z,64.20
2023-01-30T16:12:47.987Z,64.10
2023-01-30T16:15:20.993Z,64.30
2023-01-30T16:17:55.995Z,64.20
2023-01-30T16:20:23.944Z,64.20
2023-01-30T16:22:51.837Z,64.30
2023-01-30T16:25:23.384Z,64.20
2023-01-30T16:27:52.943Z,64.20
2023-01-30T16:30:22.585Z,64.20
2023-01-30T16:32:50.488Z,64.30
2023-01-30T16:35:30.737Z,64.50
2023-01-30T16:37:59.989Z,64.40
2023-01-30T16:40:31.799Z,64.00
2023-01-30T16:43:00.425Z,63.60
2023-01-30T16:46:13.317Z,63.40
2023-01-30T16:48:41.254Z,63.40
2023-01-30T16:51:15.668Z,63.60
2023-01-30T16:53:49.041Z,63.80
2023-01-30T16:56:20.209Z,63.70
2023-01-30T16:58:51.364Z,63.70
2023-01-30T17:01:19.914Z,63.80
2023-01-30T17:03:52.637Z,63.70
2023-01-30T17:06:22.143Z,63.90
2023-01-30T17:08:52.115Z,64.00
2023-01-30T17:11:35.114Z,64.10
2023-01-30T17:14:20.035Z,64.10
2023-01-30T17:16:48.096Z,64.10
2023-01-30T17:19:16.009Z,64.10
2023-01-30T17:21:45.342Z,64.90
2023-01-30T17:24:15.282Z,64.30
2023-01-30T17:26:44.741Z,64.30
2023-01-30T17:29:23.454Z,64.30
2023-01-30T17:31:57.409Z,64.50
2023-01-30T17:34:27.227Z,64.50
2023-01-30T17:36:56.679Z,64.20
2023-01-30T17:39:25.656Z,63.70
2023-01-30T17:41:54.917Z,63.70
2023-01-30T17:44:22.851Z,63.60
2023-01-30T17:46:50.783Z,63.70
2023-01-30T17:49:19.708Z,63.90
2023-01-30T17:51:47.662Z,64.00
2023-01-30T17:54:16.331Z,63.90
2023-01-30T17:56:45.215Z,64.00
2023-01-30T17:59:15.189Z,64.00
2023-01-30T18:01:43.202Z,64.10
2023-01-30T18:04:11.110Z,64.20
2023-01-30T18:06:39.188Z,64.30
2023-01-30T18:09:07.191Z,64.40
2023-01-30T18:11:35.110Z,64.30
2023-01-30T18:14:03.000Z,64.30
2023-01-30T18:16:32.354Z,64.20
2023-01-30T18:19:03.439Z,64.30
2023-01-30T18:21:31.317Z,64.30
2023-01-30T18:23:59.363Z,64.30
2023-01-30T18:26:27.420Z,64.30
2023-01-30T18:28:55.413Z,64.40
2023-01-30T18:31:25.115Z,64.20
2023-01-30T18:33:55.269Z,63.90
2023-01-30T18:36:23.315Z,63.50
2023-01-30T18:38:51.751Z,63.50
2023-01-30T18:41:20.625Z,63.50
2023-01-30T18:43:49.432Z,63.70
2023-01-30T18:46:18.255Z,63.80
2023-01-30T18:48:46.515Z,63.80
2023-01-30T18:51:17.878Z,63.80
2023-01-30T18:53:46.129Z,63.90
2023-01-30T18:56:15.033Z,64.00
2023-01-30T18:58:44.756Z,64.10
2023-01-30T19:01:15.486Z,64.10
2023-01-30T19:03:43.533Z,64.10
2023-01-30T19:06:13.026Z,64.40
2023-01-30T19:08:42.390Z,64.40
2023-01-30T19:11:24.948Z,64.00
2023-01-30T19:13:53.430Z,63.90
2023-01-30T19:16:21.450Z,64.00
2023-01-30T19:18:49.985Z,64.10
2023-01-30T19:21:17.949Z,64.10
2023-01-30T19:23:47.205Z,64.30
2023-01-30T19:26:15.185Z,64.20
2023-01-30T19:28:44.568Z,64.20
2023-01-30T19:31:14.636Z,64.20
2023-01-30T19:33:42.651Z,64.20
2023-01-30T19:36:10.915Z,64.20
2023-01-30T19:38:38.909Z,64.20
2023-01-30T19:41:11.471Z,64.30
2023-01-30T19:43:39.377Z,64.40
2023-01-30T19:46:07.342Z,64.30
2023-01-30T19:48:35.473Z,63.90
2023-01-30T19:51:13.486Z,63.50
2023-01-30T19:53:41.613Z,63.60
2023-01-30T19:56:11.401Z,63.50
2023-01-30T19:58:39.749Z,63.70
2023-01-30T20:01:08.332Z,63.90
2023-01-30T20:03:36.974Z,63.90
2023-01-30T20:06:12.067Z,63.80
2023-01-30T20:08:41.011Z,63.90
2023-01-30T20:11:11.201Z,64.10
2023-01-30T20:13:39.756Z,64.10
2023-01-30T20:16:08.076Z,64.10
2023-01-30T20:18:37.307Z,64.20
2023-01-30T20:21:06.871Z,64.30
2023-01-30T20:23:34.897Z,64.20
2023-01-30T20:26:04.822Z,64.20
2023-01-30T20:28:34.421Z,64.20
2023-01-30T20:31:04.581Z,64.30
2023-01-30T20:33:32.577Z,64.30
2023-01-30T20:36:01.997Z,64.30
2023-01-30T20:38:31.369Z,64.50
2023-01-30T20:41:03.845Z,64.40
2023-01-30T20:43:34.183Z,64.10
2023-01-30T20:46:06.810Z,63.70
2023-01-30T20:48:34.709Z,63.50
2023-01-30T20:51:06.181Z,63.60
2023-01-30T20:53:34.112Z,63.80
2023-01-30T20:56:02.583Z,63.80
2023-01-30T20:58:30.749Z,64.10
2023-01-30T21:01:06.965Z,63.90
2023-01-30T21:03:34.887Z,64.00
2023-01-30T21:06:02.832Z,64.00
2023-01-30T21:08:30.742Z,64.10
2023-01-30T21:11:04.592Z,64.10
2023-01-30T21:13:32.687Z,64.30
2023-01-30T21:16:07.140Z,64.40
2023-01-30T21:18:35.995Z,64.20
2023-01-30T21:21:03.874Z,64.20
2023-01-30T21:23:33.190Z,64.30
2023-01-30T21:26:04.453Z,64.30
2023-01-30T21:28:32.442Z,64.30
2023-01-30T21:31:06.566Z,64.40
2023-01-30T21:33:34.545Z,64.40
2023-01-30T21:36:02.554Z,64.70
2023-01-30T21:38:47.983Z,64.50
2023-01-30T21:41:34.197Z,64.10
2023-01-30T21:44:02.237Z,63.60
2023-01-30T21:46:31.912Z,63.60
2023-01-30T21:48:59.983Z,63.60
2023-01-30T21:51:27.915Z,63.80
2023-01-30T21:53:56.088Z,63.90
2023-01-30T21:56:24.121Z,64.00
2023-01-30T21:58:52.039Z,64.00
2023-01-30T22:01:20.059Z,64.00
2023-01-30T22:03:49.355Z,64.10
2023-01-30T22:06:17.336Z,64.20
2023-01-30T22:08:45.275Z,64.20
2023-01-30T22:11:14.460Z,64.30
2023-01-30T22:13:42.724Z,64.40
2023-01-30T22:16:12.021Z,64.30
2023-01-30T22:18:40.036Z,64.30
2023-01-30T22:21:11.472Z,64.30
2023-01-30T22:23:40.194Z,64.30
2023-01-30T22:26:08.457Z,64.40
2023-01-30T22:28:36.405Z,64.40
2023-01-30T22:31:05.043Z,64.50
2023-01-30T22:33:33.070Z,64.60
2023-01-30T22:36:01.175Z,64.40
2023-01-30T22:38:30.453Z,64.00
2023-01-30T22:41:02.167Z,63.50
2023-01-30T22:43:30.283Z,64.30
2023-01-30T22:46:01.896Z,63.70
2023-01-30T22:48:29.981Z,63.80
2023-01-30T22:51:02.407Z,64.80
2023-01-30T22:53:34.400Z,64.00
2023-01-30T22:56:03.539Z,64.10
2023-01-30T22:58:31.427Z,64.30
2023-01-30T23:01:05.748Z,64.30
2023-01-30T23:03:33.749Z,64.40
2023-01-30T23:06:02.113Z,64.40
2023-01-30T23:08:30.778Z,64.60
2023-01-30T23:11:00.377Z,64.70
2023-01-30T23:13:28.300Z,64.60
2023-01-30T23:15:59.823Z,64.60
2023-01-30T23:18:45.682Z,64.60
2023-01-30T23:21:13.733Z,64.60
2023-01-30T23:23:41.717Z,64.60
2023-01-30T23:26:11.125Z,64.70
2023-01-30T23:28:39.099Z,64.90
2023-01-30T23:31:08.304Z,64.80
2023-01-30T23:33:36.513Z,64.40
2023-01-30T23:36:04.879Z,64.00
2023-01-30T23:38:32.876Z,63.80
2023-01-30T23:41:10.694Z,63.90
2023-01-30T23:43:39.084Z,64.00
2023-01-30T23:46:15.048Z,64.10
2023-01-30T23:48:43.273Z,64.20
2023-01-30T23:51:11.322Z,64.10
2023-01-30T23:53:39.860Z,64.10
2023-01-30T23:56:09.888Z,64.10
2023-01-30T23:58:38.589Z,64.20
